Terminal Aerodrome Forecast
Issued by NWS

Home | Current Version | Previous Version | Text Only | Print | Product List | Glossary On
Versions: 1 2 3 4 5 6 7 8 9 10 11 12 13 14 15 16 17 18 19 20 21 22 23 24 25 26 27 28 29 30 31 32 33 34 35 36 37 38 39 40 41 42 43 44 45 46 47 48 49 50
000
FTUS43 KMKX 210443 AAB
TAFENW
TAF AMD
KENW 210443Z 2105/2124 24007KT P6SM SCT050 BKN080
      TEMPO 2105/2106 27025G35KT 3SM TSRA BKN050CB
     FM210700 28011KT P6SM SCT030
     FM211100 28011G19KT P6SM SCT025 BKN040
      TEMPO 2112/2114 SCT015 BKN025
     FM211400 32012G22KT P6SM VCSH OVC015
     FM212000 35012G20KT P6SM SCT050=

USA.gov is the U.S. government's official web portal to all federal, state and local government web resources and services.